Time;durP1;ratioP1;P1;durP2;ratioP2;P2;SDS_P1;SDS_P2;PMS_P1;PMS_P2;Temp;Humidity;BMP_temperature;BMP_pressure;BME280_temperature;BME280_humidity;BME280_pressure;Samples;Min_cycle;Max_cycle;Signal;HPM_P1;HPM_P2
2021/04/04 00:00:27;;;;;;;18.30;12.83;;;2.00;5.70;;;;;;5066701;28;20212;-66
2021/04/04 00:02:53;;;;;;;15.05;13.45;;;2.00;10.30;;;;;;5066070;28;20650;-65
2021/04/04 00:05:18;;;;;;;14.10;12.70;;;2.00;15.70;;;;;;5067405;28;20230;-65
2021/04/04 00:07:44;;;;;;;15.57;12.83;;;1.90;17.20;;;;;;5065326;28;20606;-65
2021/04/04 00:10:11;;;;;;;16.83;12.80;;;1.90;19.00;;;;;;5068108;28;20752;-65
2021/04/04 00:12:37;;;;;;;16.77;13.07;;;1.80;23.90;;;;;;5067329;28;20207;-65
2021/04/04 00:15:08;;;;;;;16.30;12.85;;;1.80;28.60;;;;;;5066201;28;20223;-65
2021/04/04 00:17:34;;;;;;;13.85;10.82;;;1.70;32.80;;;;;;5065850;28;20233;-65
2021/04/04 00:19:59;;;;;;;12.93;11.53;;;1.70;33.80;;;;;;5065837;28;20188;-65
2021/04/04 00:22:25;;;;;;;14.40;11.97;;;1.60;34.50;;;;;;5068024;28;20195;-65
2021/04/04 00:24:50;;;;;;;15.13;11.10;;;1.60;35.50;;;;;;5062903;28;20183;-65
2021/04/04 00:27:16;;;;;;;19.87;12.07;;;1.60;36.20;;;;;;5067663;28;20283;-66
2021/04/04 00:29:41;;;;;;;17.00;12.43;;;1.50;35.70;;;;;;5066861;28;20195;-65
2021/04/04 00:32:07;;;;;;;14.20;12.13;;;1.50;37.00;;;;;;5067834;28;20282;-65
2021/04/04 00:34:32;;;;;;;15.67;11.77;;;1.40;42.00;;;;;;5047495;28;20273;-65
2021/04/04 00:36:58;;;;;;;13.60;11.83;;;1.40;42.00;;;;;;5067604;28;20176;-64
2021/04/04 00:39:24;;;;;;;14.67;11.00;;;1.30;43.80;;;;;;5049125;28;20209;-65
2021/04/04 00:41:50;;;;;;;14.50;11.48;;;1.30;45.00;;;;;;5070875;28;20258;-65
2021/04/04 00:44:16;;;;;;;15.70;11.57;;;1.20;46.60;;;;;;5070809;28;20275;-65
2021/04/04 00:46:41;;;;;;;13.15;11.70;;;1.20;47.50;;;;;;5070523;28;20262;-65
2021/04/04 00:49:07;;;;;;;13.17;11.47;;;1.20;50.50;;;;;;5070509;28;20277;-65
2021/04/04 00:51:33;;;;;;;12.65;10.77;;;1.10;50.00;;;;;;5070448;28;20190;-65
2021/04/04 00:53:59;;;;;;;15.38;11.32;;;1.00;50.40;;;;;;5070480;28;20213;-66
2021/04/04 00:56:26;;;;;;;14.20;11.80;;;1.00;53.60;;;;;;5069723;28;20291;-66
2021/04/04 00:58:53;;;;;;;13.85;10.73;;;1.00;54.00;;;;;;5069575;28;20648;-65
2021/04/04 01:01:18;;;;;;;13.38;10.45;;;0.90;54.10;;;;;;5070582;28;20273;-66
2021/04/04 01:03:44;;;;;;;12.70;10.33;;;0.90;54.30;;;;;;5068761;28;20792;-66
2021/04/04 01:06:11;;;;;;;13.23;10.60;;;0.80;56.80;;;;;;5070502;28;20201;-66
2021/04/04 01:08:40;;;;;;;12.35;11.05;;;0.80;58.10;;;;;;5071115;28;20679;-67
2021/04/04 01:11:07;;;;;;;15.30;11.20;;;0.80;59.20;;;;;;5071078;28;20221;-66
2021/04/04 01:13:50;;;;;;;12.98;9.82;;;0.80;60.00;;;;;;5075447;28;20199;-66
2021/04/04 01:16:29;;;;;;;14.02;11.02;;;0.80;62.80;;;;;;5071295;28;20260;-66
2021/04/04 01:19:06;;;;;;;11.20;9.90;;;0.80;65.70;;;;;;5069231;28;20233;-66
2021/04/04 01:21:48;;;;;;;12.23;10.30;;;0.80;66.30;;;;;;5064869;28;20642;-66
2021/04/04 01:24:37;;;;;;;14.75;11.75;;;0.70;70.30;;;;;;5061806;28;20182;-67
2021/04/04 01:27:23;;;;;;;11.95;10.75;;;0.70;74.70;;;;;;5068642;28;20719;-66
2021/04/04 01:29:50;;;;;;;12.05;10.68;;;0.70;74.40;;;;;;5071130;28;20247;-66
2021/04/04 01:32:16;;;;;;;13.40;11.80;;;0.70;77.30;;;;;;5071335;28;20211;-66
2021/04/04 01:34:43;;;;;;;13.83;11.27;;;0.70;77.30;;;;;;5068358;28;20214;-66
2021/04/04 01:37:12;;;;;;;13.02;10.20;;;0.70;78.50;;;;;;5070234;28;20439;-66
2021/04/04 01:39:43;;;;;;;14.15;10.38;;;0.70;79.10;;;;;;5069975;28;20241;-66
2021/04/04 01:42:10;;;;;;;12.68;10.45;;;0.70;79.80;;;;;;5070265;28;20187;-66
2021/04/04 01:44:38;;;;;;;11.27;10.07;;;0.70;78.90;;;;;;5070078;28;20209;-67
2021/04/04 01:47:04;;;;;;;13.98;10.15;;;0.70;76.30;;;;;;5069775;28;20194;-66
2021/04/04 01:49:32;;;;;;;12.53;10.40;;;0.70;80.20;;;;;;5070450;28;20651;-66
2021/04/04 01:51:59;;;;;;;12.95;10.65;;;0.60;80.10;;;;;;5066877;28;20455;-66
2021/04/04 01:54:27;;;;;;;12.60;10.75;;;0.60;84.10;;;;;;5070894;28;20684;-66
2021/04/04 01:56:55;;;;;;;12.45;10.45;;;0.60;93.20;;;;;;5069935;28;20728;-66
2021/04/04 01:59:22;;;;;;;12.20;10.02;;;0.60;98.00;;;;;;5070498;28;20512;-66
2021/04/04 02:01:48;;;;;;;12.48;10.27;;;0.50;99.70;;;;;;5068537;28;20192;-66
2021/04/04 02:04:15;;;;;;;13.82;10.20;;;0.50;99.90;;;;;;5070776;28;20183;-66
2021/04/04 02:06:42;;;;;;;14.52;11.40;;;0.50;99.90;;;;;;5069530;28;20205;-66
2021/04/04 02:09:11;;;;;;;13.13;9.80;;;0.50;99.90;;;;;;5070325;28;20223;-66
2021/04/04 02:11:39;;;;;;;13.30;10.73;;;0.50;99.90;;;;;;5068987;28;20221;-65
2021/04/04 02:14:11;;;;;;;16.13;11.60;;;0.40;99.90;;;;;;5069457;28;20185;-65
2021/04/04 02:16:39;;;;;;;13.20;10.98;;;0.40;99.90;;;;;;5069490;28;20687;-66
2021/04/04 02:19:07;;;;;;;15.77;12.45;;;0.40;99.90;;;;;;5068246;28;20548;-66
2021/04/04 02:21:33;;;;;;;14.82;11.70;;;0.40;99.90;;;;;;5069921;28;20177;-66
2021/04/04 02:24:06;;;;;;;15.13;11.98;;;0.30;99.90;;;;;;5068368;28;20189;-66
2021/04/04 02:26:32;;;;;;;14.65;12.00;;;0.30;99.90;;;;;;5069851;28;20185;-66
2021/04/04 02:28:59;;;;;;;19.00;12.15;;;0.30;99.90;;;;;;5067383;28;20179;-66
2021/04/04 02:31:29;;;;;;;13.60;10.50;;;0.30;99.90;;;;;;5069929;28;20566;-66
2021/04/04 02:34:01;;;;;;;16.60;12.68;;;0.20;99.90;;;;;;5073281;28;20205;-66
2021/04/04 02:36:30;;;;;;;16.65;12.23;;;0.20;99.90;;;;;;5049939;28;20218;-66
2021/04/04 02:39:01;;;;;;;13.98;10.18;;;0.20;99.90;;;;;;5068911;28;20209;-66
2021/04/04 02:41:30;;;;;;;13.70;11.65;;;0.20;99.90;;;;;;5068255;28;20263;-66
2021/04/04 02:43:57;;;;;;;14.05;10.90;;;0.20;99.90;;;;;;5069154;28;20244;-66
2021/04/04 02:46:25;;;;;;;13.75;10.70;;;0.20;99.90;;;;;;5068967;28;20759;-66
2021/04/04 02:48:54;;;;;;;11.80;10.15;;;0.20;99.90;;;;;;5069311;28;20200;-66
2021/04/04 02:51:30;;;;;;;13.43;10.10;;;0.20;99.90;;;;;;5068678;28;20178;-66
2021/04/04 02:53:57;;;;;;;13.40;9.50;;;0.20;99.90;;;;;;5058162;28;20188;-66
2021/04/04 02:56:24;;;;;;;17.67;11.20;;;0.20;99.90;;;;;;5067320;28;20304;-66
2021/04/04 02:58:57;;;;;;;14.25;10.30;;;0.20;99.90;;;;;;5067447;28;20264;-65
2021/04/04 03:01:34;;;;;;;12.65;9.82;;;0.10;99.90;;;;;;5068058;28;20238;-66
2021/04/04 03:04:03;;;;;;;16.08;9.98;;;0.20;99.90;;;;;;5069010;28;20181;-66
2021/04/04 03:06:29;;;;;;;11.88;9.68;;;0.20;99.90;;;;;;5068165;28;20185;-66
2021/04/04 03:08:55;;;;;;;15.48;10.48;;;0.20;99.90;;;;;;5068784;28;20600;-66
2021/04/04 03:11:22;;;;;;;13.10;9.77;;;0.20;99.90;;;;;;5067493;28;20226;-66
2021/04/04 03:13:51;;;;;;;19.13;10.52;;;0.20;99.90;;;;;;5069353;28;20266;-67
2021/04/04 03:16:21;;;;;;;14.48;10.20;;;0.10;99.90;;;;;;5068119;28;20304;-66
2021/04/04 03:18:48;;;;;;;14.90;10.07;;;0.10;99.90;;;;;;5069780;28;20201;-66
2021/04/04 03:21:16;;;;;;;13.55;10.13;;;0.10;99.90;;;;;;5067890;28;20616;-66
2021/04/04 03:23:43;;;;;;;11.43;9.35;;;0.10;99.90;;;;;;5067628;28;20173;-66
2021/04/04 03:26:10;;;;;;;12.23;9.43;;;0.10;99.90;;;;;;5058903;28;20186;-66
2021/04/04 03:28:37;;;;;;;12.18;9.60;;;0.10;99.90;;;;;;5069649;28;20215;-66
2021/04/04 03:31:04;;;;;;;13.15;10.07;;;0.00;99.90;;;;;;5054192;28;20197;-66
2021/04/04 03:33:30;;;;;;;14.40;10.25;;;0.00;99.90;;;;;;5067459;28;20286;-66
2021/04/04 03:35:57;;;;;;;15.80;10.57;;;0.00;99.90;;;;;;5069536;28;20285;-66
2021/04/04 03:38:25;;;;;;;16.65;11.00;;;0.00;99.90;;;;;;5068315;28;20209;-66
2021/04/04 03:40:52;;;;;;;13.05;10.32;;;0.00;99.90;;;;;;5071544;28;20265;-66
2021/04/04 03:43:26;;;;;;;12.27;10.13;;;-0.10;99.90;;;;;;5068438;28;20213;-66
2021/04/04 03:45:54;;;;;;;14.27;9.90;;;-0.20;99.90;;;;;;5067920;28;20186;-66
2021/04/04 03:48:21;;;;;;;13.40;10.23;;;-0.10;99.90;;;;;;5069224;28;20213;-66
2021/04/04 03:50:47;;;;;;;14.43;9.57;;;-0.10;99.90;;;;;;5068888;28;20188;-66
2021/04/04 03:53:18;;;;;;;15.00;10.60;;;-0.10;99.90;;;;;;5068916;28;20185;-66
2021/04/04 03:55:47;;;;;;;13.70;10.27;;;-0.20;99.90;;;;;;5067051;28;20240;-66
2021/04/04 03:58:13;;;;;;;14.40;10.55;;;-0.20;99.90;;;;;;5069005;28;20181;-66
2021/04/04 04:00:40;;;;;;;14.43;10.27;;;-0.20;99.90;;;;;;5067925;28;20173;-65
2021/04/04 04:03:07;;;;;;;12.93;9.85;;;-0.20;99.90;;;;;;5066825;28;20611;-66
2021/04/04 04:05:33;;;;;;;11.77;9.60;;;-0.20;99.90;;;;;;5066894;28;20182;-65
2021/04/04 04:08:00;;;;;;;13.10;9.27;;;-0.20;99.90;;;;;;5069083;28;20182;-66
2021/04/04 04:10:26;;;;;;;14.95;10.35;;;-0.20;99.90;;;;;;5068071;28;20735;-67
2021/04/04 04:12:52;;;;;;;10.87;8.40;;;-0.20;99.90;;;;;;5069503;28;20294;-66
2021/04/04 04:15:18;;;;;;;12.95;9.32;;;-0.20;99.90;;;;;;5059044;28;20476;-66
2021/04/04 04:17:46;;;;;;;12.70;9.02;;;-0.20;99.90;;;;;;5068068;28;20186;-67
2021/04/04 04:20:13;;;;;;;14.90;9.95;;;-0.20;99.90;;;;;;5067942;28;20180;-67
2021/04/04 04:22:40;;;;;;;14.90;10.60;;;-0.30;99.90;;;;;;5068484;28;20276;-67
2021/04/04 04:25:06;;;;;;;12.27;9.98;;;-0.30;99.90;;;;;;5067674;28;20181;-67
2021/04/04 04:27:33;;;;;;;13.85;10.63;;;-0.30;99.90;;;;;;5069278;28;20189;-66
2021/04/04 04:30:01;;;;;;;12.25;10.10;;;-0.30;99.90;;;;;;5068314;28;20180;-66
2021/04/04 04:32:29;;;;;;;13.30;10.75;;;-0.30;99.90;;;;;;5067405;28;20182;-66
2021/04/04 04:34:56;;;;;;;11.90;9.32;;;-0.30;99.90;;;;;;5074763;28;21000;-66
2021/04/04 04:37:23;;;;;;;12.93;9.48;;;-0.30;99.90;;;;;;5069034;28;20184;-66
2021/04/04 04:39:49;;;;;;;11.77;9.80;;;-0.30;99.90;;;;;;5069101;28;20174;-67
2021/04/04 04:42:17;;;;;;;12.25;10.00;;;-0.40;99.90;;;;;;5076579;28;20178;-67
2021/04/04 04:44:45;;;;;;;12.80;9.30;;;-0.40;99.90;;;;;;5066987;28;20189;-67
2021/04/04 04:47:12;;;;;;;12.35;9.25;;;-0.40;99.90;;;;;;5067332;28;20186;-67
2021/04/04 04:49:41;;;;;;;13.98;11.00;;;-0.40;99.90;;;;;;5067642;28;20209;-67
2021/04/04 04:52:07;;;;;;;13.65;9.43;;;-0.40;99.90;;;;;;5067966;28;20676;-67
2021/04/04 04:54:33;;;;;;;12.17;9.73;;;-0.30;99.90;;;;;;5068635;28;20197;-68
2021/04/04 04:56:59;;;;;;;12.80;10.17;;;-0.40;99.90;;;;;;5068704;28;20169;-67
2021/04/04 04:59:25;;;;;;;12.48;10.05;;;-0.30;99.90;;;;;;5067633;28;20185;-67
2021/04/04 05:01:52;;;;;;;15.70;9.77;;;-0.30;99.90;;;;;;5038170;28;20173;-67
2021/04/04 05:04:17;;;;;;;14.27;9.70;;;-0.30;99.90;;;;;;5067559;28;20528;-67
2021/04/04 05:06:46;;;;;;;13.50;9.80;;;-0.30;99.90;;;;;;5067274;28;20185;-68
2021/04/04 05:09:12;;;;;;;14.98;10.80;;;-0.30;99.90;;;;;;5067665;28;20197;-67
2021/04/04 05:11:41;;;;;;;13.50;9.88;;;-0.30;99.90;;;;;;5066496;28;20246;-67
2021/04/04 05:14:10;;;;;;;14.30;10.02;;;-0.30;99.90;;;;;;5058375;28;20170;-67
2021/04/04 05:16:35;;;;;;;14.30;9.98;;;-0.20;99.90;;;;;;5067155;28;20183;-67
2021/04/04 05:19:01;;;;;;;14.50;9.70;;;-0.30;99.90;;;;;;5066947;28;20189;-67
2021/04/04 05:21:29;;;;;;;14.87;10.53;;;-0.30;99.90;;;;;;5068425;28;20660;-67
2021/04/04 05:23:59;;;;;;;13.63;9.45;;;-0.20;99.90;;;;;;5067265;28;20536;-67
2021/04/04 05:26:31;;;;;;;13.40;9.45;;;-0.20;99.90;;;;;;5068320;28;20590;-67
2021/04/04 05:29:07;;;;;;;11.38;8.68;;;-0.20;99.90;;;;;;5070617;28;20861;-67
2021/04/04 05:31:33;;;;;;;11.95;9.30;;;-0.10;99.90;;;;;;5069136;28;20181;-67
2021/04/04 05:34:00;;;;;;;13.57;9.10;;;-0.10;99.90;;;;;;5070359;28;20211;-67
2021/04/04 05:36:26;;;;;;;13.35;9.10;;;-0.10;99.90;;;;;;5071122;28;20432;-66
2021/04/04 05:38:55;;;;;;;13.90;9.52;;;-0.10;99.90;;;;;;5071203;28;20685;-67
2021/04/04 05:41:23;;;;;;;10.93;9.05;;;0.00;99.90;;;;;;5069970;28;20652;-67
2021/04/04 05:43:55;;;;;;;10.80;8.25;;;0.10;99.90;;;;;;5071770;28;20651;-67
2021/04/04 05:46:29;;;;;;;12.40;8.88;;;0.10;99.90;;;;;;5070794;28;20186;-66
2021/04/04 05:49:03;;;;;;;11.80;8.70;;;0.20;99.90;;;;;;5071541;28;20185;-66
2021/04/04 05:51:41;;;;;;;12.30;8.73;;;0.20;99.90;;;;;;5069043;28;20614;-67
2021/04/04 05:54:32;;;;;;;14.75;8.60;;;0.20;99.90;;;;;;5069653;28;20574;-67
2021/04/04 05:57:02;;;;;;;12.95;8.52;;;0.20;99.90;;;;;;5068179;28;20177;-67
2021/04/04 05:59:48;;;;;;;12.02;8.35;;;0.30;99.90;;;;;;5070505;28;20220;-65
2021/04/04 06:02:48;;;;;;;11.00;8.05;;;0.40;99.90;;;;;;5064878;28;20178;-65
2021/04/04 06:05:51;;;;;;;13.93;8.73;;;0.50;99.90;;;;;;5068968;28;20187;-65
2021/04/04 06:08:50;;;;;;;13.35;8.82;;;0.60;99.90;;;;;;5065115;28;20432;-65
2021/04/04 06:11:27;;;;;;;11.32;7.50;;;0.70;99.90;;;;;;5070209;28;20217;-66
2021/04/04 06:14:09;;;;;;;11.32;8.43;;;0.70;99.90;;;;;;5068955;28;20181;-66
2021/04/04 06:16:49;;;;;;;9.73;8.18;;;0.80;99.90;;;;;;5069510;28;20194;-67
2021/04/04 06:19:36;;;;;;;11.40;8.15;;;0.90;99.90;;;;;;5046312;28;20188;-66
2021/04/04 06:22:24;;;;;;;11.05;7.68;;;1.00;99.90;;;;;;5059754;28;20180;-65
2021/04/04 06:24:55;;;;;;;9.63;7.50;;;1.10;99.90;;;;;;5054933;28;20196;-66
2021/04/04 06:27:47;;;;;;;8.65;6.85;;;1.20;99.90;;;;;;5059580;28;20241;-66
2021/04/04 06:33:25;;;;;;;8.95;6.70;;;1.30;99.90;;;;;;5059789;28;20182;-66
2021/04/04 06:36:04;;;;;;;7.75;6.40;;;1.40;99.90;;;;;;5031378;28;20226;-66
2021/04/04 06:38:48;;;;;;;7.25;6.25;;;1.40;97.30;;;;;;5059717;28;20180;-67
2021/04/04 06:41:19;;;;;;;10.18;6.13;;;1.50;92.30;;;;;;5058626;28;20518;-67
2021/04/04 06:44:10;;;;;;;9.20;6.70;;;1.50;90.50;;;;;;5060903;28;20180;-67
2021/04/04 06:46:42;;;;;;;8.73;6.35;;;1.60;84.60;;;;;;5060024;28;20262;-67
2021/04/04 06:49:39;;;;;;;8.27;5.75;;;1.60;76.70;;;;;;5060129;28;20187;-66
2021/04/04 06:52:32;;;;;;;8.80;5.95;;;1.70;73.70;;;;;;5059411;28;20195;-65
2021/04/04 06:55:13;;;;;;;7.22;5.82;;;1.90;74.70;;;;;;5059974;28;20207;-65
2021/04/04 06:58:12;;;;;;;9.02;5.68;;;2.00;73.10;;;;;;5059089;28;20237;-65
2021/04/04 07:01:01;;;;;;;9.10;6.40;;;2.10;59.40;;;;;;5060281;28;20200;-65
2021/04/04 07:03:34;;;;;;;7.38;6.43;;;2.20;59.60;;;;;;5059740;28;20246;-65
2021/04/04 07:06:48;;;;;;;10.50;6.72;;;2.30;57.00;;;;;;5058911;28;20652;-64
2021/04/04 07:09:51;;;;;;;6.65;5.75;;;2.40;48.90;;;;;;5060509;28;20189;-72
2021/04/04 07:12:51;;;;;;;6.93;5.60;;;2.50;43.40;;;;;;5059907;28;20231;-72
2021/04/04 07:15:42;;;;;;;8.10;6.18;;;2.70;41.90;;;;;;5057295;28;20586;-76
2021/04/04 07:18:32;;;;;;;7.88;5.35;;;2.80;40.70;;;;;;5036429;28;20267;-76
2021/04/04 07:21:34;;;;;;;6.43;5.18;;;2.80;26.40;;;;;;5055817;28;20168;-70
2021/04/04 07:24:19;;;;;;;9.43;5.55;;;3.00;21.20;;;;;;5055629;28;20181;-72
2021/04/04 07:27:06;;;;;;;8.95;5.68;;;3.10;99.90;;;;;;5058503;28;20184;-72
2021/04/04 07:29:54;;;;;;;6.30;5.15;;;3.20;99.90;;;;;;5058697;28;20184;-71
2021/04/04 07:32:46;;;;;;;6.65;5.38;;;3.30;99.90;;;;;;5044584;28;20690;-71
2021/04/04 07:35:21;;;;;;;5.63;4.75;;;3.50;99.90;;;;;;5055035;28;20212;-73
2021/04/04 07:38:01;;;;;;;5.88;4.97;;;3.60;99.90;;;;;;5043154;28;20177;-70
2021/04/04 07:40:46;;;;;;;6.18;4.72;;;3.70;99.90;;;;;;5063126;28;20181;-76
2021/04/04 07:43:21;;;;;;;5.50;4.88;;;4.00;99.90;;;;;;5066541;28;20576;-77
2021/04/04 07:46:10;;;;;;;5.80;4.75;;;4.10;99.90;;;;;;5068155;28;20281;-80
2021/04/04 07:49:00;;;;;;;6.05;5.30;;;4.20;99.90;;;;;;5066503;28;20192;-76
2021/04/04 07:51:33;;;;;;;8.85;5.55;;;4.40;99.90;;;;;;5066720;28;20264;-75
2021/04/04 07:54:07;;;;;;;5.13;4.63;;;4.50;99.90;;;;;;5066068;28;20220;-76
2021/04/04 07:56:39;;;;;;;5.50;4.90;;;4.70;99.90;;;;;;5064257;28;20185;-76
2021/04/04 07:59:32;;;;;;;6.35;5.35;;;4.90;99.90;;;;;;5065865;28;20433;-76
2021/04/04 08:02:11;;;;;;;5.40;4.90;;;5.00;99.90;;;;;;5062154;28;20651;-76
2021/04/04 08:04:51;;;;;;;6.43;4.80;;;5.20;99.90;;;;;;5063223;28;20254;-82
2021/04/04 08:07:26;;;;;;;5.45;4.95;;;5.40;99.90;;;;;;5063696;28;20529;-80
2021/04/04 08:10:07;;;;;;;7.72;5.68;;;5.40;99.90;;;;;;5062743;28;20180;-80
2021/04/04 08:13:23;;;;;;;5.78;5.18;;;5.50;99.90;;;;;;5064090;28;20652;-78
2021/04/04 08:16:14;;;;;;;5.78;5.28;;;5.70;99.90;;;;;;5017825;28;20733;-76
2021/04/04 08:18:40;;;;;;;5.75;4.82;;;5.90;99.90;;;;;;5056810;28;20174;-80
2021/04/04 08:21:13;;;;;;;5.55;4.97;;;6.00;99.90;;;;;;5055758;28;20621;-81
2021/04/04 08:24:10;;;;;;;6.32;5.80;;;6.20;99.90;;;;;;5054506;28;20175;-78
2021/04/04 08:26:47;;;;;;;5.80;5.32;;;6.60;99.90;;;;;;5057231;28;20572;-79
2021/04/04 08:29:16;;;;;;;5.90;5.32;;;6.90;99.90;;;;;;5066471;28;20189;-79
2021/04/04 08:31:54;;;;;;;6.07;5.47;;;7.20;97.70;;;;;;5065363;28;20270;-77
2021/04/04 08:34:26;;;;;;;5.60;5.10;;;7.40;95.90;;;;;;5068175;28;20438;-78
2021/04/04 08:36:57;;;;;;;6.00;5.30;;;7.80;92.80;;;;;;5060974;28;20435;-76
2021/04/04 08:39:26;;;;;;;6.17;4.67;;;8.00;92.90;;;;;;5064874;28;20990;-76
2021/04/04 08:41:54;;;;;;;5.10;4.70;;;8.20;95.10;;;;;;5064459;28;20439;-77
2021/04/04 08:44:43;;;;;;;5.60;5.03;;;8.70;91.70;;;;;;5064493;28;20549;-80
2021/04/04 08:47:25;;;;;;;5.43;4.93;;;9.30;82.00;;;;;;5053700;28;20447;-73
2021/04/04 08:49:51;;;;;;;4.80;4.50;;;10.00;69.90;;;;;;5060916;28;20446;-75
2021/04/04 08:52:26;;;;;;;4.50;4.20;;;10.60;70.90;;;;;;5063300;28;20811;-80
2021/04/04 08:54:54;;;;;;;4.10;3.70;;;11.40;65.10;;;;;;5042858;28;20900;-73
2021/04/04 08:57:33;;;;;;;4.97;4.57;;;11.90;58.20;;;;;;5063598;28;20431;-80
2021/04/04 09:00:03;;;;;;;4.87;4.47;;;12.50;55.00;;;;;;5064555;28;20519;-73
2021/04/04 09:02:32;;;;;;;4.50;4.20;;;13.30;54.70;;;;;;5066263;28;20450;-78
2021/04/04 09:05:03;;;;;;;5.40;5.00;;;14.00;52.60;;;;;;5069109;28;20976;-79
2021/04/04 09:07:32;;;;;;;4.60;4.30;;;14.70;47.30;;;;;;5070717;28;20484;-77
2021/04/04 09:09:59;;;;;;;6.80;5.80;;;15.40;44.70;;;;;;5066349;28;20442;-77
2021/04/04 09:12:32;;;;;;;5.23;4.83;;;15.90;40.60;;;;;;5071961;28;20821;-80
2021/04/04 09:15:03;;;;;;;4.20;3.93;;;16.00;42.80;;;;;;5069887;28;20516;-79
2021/04/04 09:17:29;;;;;;;4.40;4.10;;;16.30;41.20;;;;;;5048875;28;20470;-81
2021/04/04 09:20:03;;;;;;;4.57;4.27;;;16.40;38.60;;;;;;5064858;28;20518;-77
2021/04/04 09:22:29;;;;;;;4.10;3.87;;;16.50;40.00;;;;;;5069699;28;20257;-75
2021/04/04 09:25:07;;;;;;;4.63;4.37;;;16.70;39.00;;;;;;5063230;28;20427;-75
2021/04/04 09:27:39;;;;;;;5.50;5.00;;;17.10;35.30;;;;;;5069736;28;20612;-80
2021/04/04 09:30:34;;;;;;;5.07;4.77;;;16.80;35.50;;;;;;5069049;28;20438;-77
2021/04/04 09:33:09;;;;;;;5.27;4.87;;;16.60;35.70;;;;;;5067241;28;20844;-78
2021/04/04 09:35:36;;;;;;;4.77;4.47;;;16.40;36.70;;;;;;5067260;28;20465;-69
2021/04/04 09:38:05;;;;;;;5.20;4.80;;;16.10;39.00;;;;;;5070424;28;20468;-70
2021/04/04 09:40:32;;;;;;;5.00;4.60;;;16.30;38.40;;;;;;5068637;28;20430;-70
2021/04/04 09:43:15;;;;;;;7.53;7.03;;;16.60;36.00;;;;;;5070346;28;20473;-76
2021/04/04 09:45:42;;;;;;;4.77;4.27;;;16.70;35.70;;;;;;5069193;28;20435;-78
2021/04/04 09:48:22;;;;;;;4.33;4.03;;;17.50;35.90;;;;;;5070376;28;20439;-80
2021/04/04 09:50:49;;;;;;;4.60;4.30;;;17.90;32.70;;;;;;5068772;28;20454;-80
2021/04/04 09:53:41;;;;;;;4.83;4.53;;;18.30;31.40;;;;;;5068872;28;20424;-79
2021/04/04 09:56:19;;;;;;;4.23;4.00;;;18.00;31.10;;;;;;5067503;28;20455;-75
2021/04/04 09:58:49;;;;;;;5.90;5.40;;;18.50;32.70;;;;;;5066088;28;20437;-76
2021/04/04 10:01:19;;;;;;;4.73;4.43;;;18.70;30.10;;;;;;5065388;28;20441;-75
2021/04/04 10:04:03;;;;;;;4.53;4.00;;;19.10;32.70;;;;;;5066935;28;20424;-76
2021/04/04 10:06:33;;;;;;;4.20;4.00;;;19.70;29.90;;;;;;5051421;28;20521;-76
2021/04/04 10:09:02;;;;;;;4.30;4.07;;;20.10;28.40;;;;;;5067602;28;20512;-76
2021/04/04 10:11:28;;;;;;;5.33;4.83;;;20.30;27.00;;;;;;5068545;28;20561;-78
2021/04/04 10:14:23;;;;;;;4.50;4.20;;;19.80;28.40;;;;;;5067629;28;20571;-76
2021/04/04 10:17:11;;;;;;;4.23;3.97;;;19.70;25.80;;;;;;5052420;28;20960;-81
2021/04/04 10:19:57;;;;;;;5.20;4.83;;;18.60;28.30;;;;;;5067551;28;20441;-81
2021/04/04 10:22:22;;;;;;;4.87;4.47;;;18.60;28.50;;;;;;5068895;28;20426;-76
2021/04/04 10:24:48;;;;;;;5.40;5.00;;;18.40;28.20;;;;;;5068046;28;20437;-77
2021/04/04 10:27:29;;;;;;;7.43;6.90;;;18.40;28.20;;;;;;5069356;28;20660;-78
2021/04/04 10:30:15;;;;;;;9.80;9.00;;;19.10;28.40;;;;;;5068868;28;20496;-81
2021/04/04 10:32:46;;;;;;;4.63;4.33;;;19.60;28.80;;;;;;5073131;28;20511;-80
2021/04/04 10:35:26;;;;;;;4.70;4.40;;;20.00;28.50;;;;;;5069607;28;20470;-77
2021/04/04 10:38:06;;;;;;;4.30;4.00;;;20.50;26.20;;;;;;5069365;28;20431;-82
2021/04/04 10:40:40;;;;;;;5.10;4.80;;;20.80;25.80;;;;;;5071306;28;20431;-77
2021/04/04 10:43:07;;;;;;;4.93;4.63;;;20.70;27.30;;;;;;5069046;28;20437;-81
2021/04/04 10:45:32;;;;;;;4.20;3.83;;;21.00;27.00;;;;;;5068682;28;21010;-81
2021/04/04 10:48:07;;;;;;;4.37;4.10;;;20.90;25.30;;;;;;5056484;28;20447;-77
2021/04/04 10:50:34;;;;;;;4.40;4.10;;;20.40;24.40;;;;;;5060161;28;20191;-75
2021/04/04 10:53:00;;;;;;;6.27;3.97;;;20.60;25.40;;;;;;5060145;28;20572;-81
2021/04/04 10:55:26;;;;;;;4.20;3.90;;;21.20;25.70;;;;;;5059910;28;20517;-68
2021/04/04 10:57:55;;;;;;;4.27;3.97;;;21.70;26.10;;;;;;5061862;28;20435;-68
2021/04/04 11:00:21;;;;;;;3.20;3.00;;;21.60;25.30;;;;;;5066736;28;20525;-72
2021/04/04 11:02:49;;;;;;;3.87;3.57;;;21.20;25.20;;;;;;5066567;28;20419;-71
2021/04/04 11:05:17;;;;;;;3.80;3.50;;;21.50;25.20;;;;;;5047834;28;20829;-68
2021/04/04 11:07:43;;;;;;;4.30;4.00;;;21.70;24.90;;;;;;5065852;28;20948;-68
2021/04/04 11:10:09;;;;;;;4.63;4.23;;;21.70;24.50;;;;;;5065854;28;20455;-67
2021/04/04 11:12:40;;;;;;;4.00;3.80;;;21.60;25.00;;;;;;5062987;28;20442;-68
2021/04/04 11:15:13;;;;;;;4.10;3.80;;;21.60;24.20;;;;;;5063511;28;20459;-68
2021/04/04 11:17:39;;;;;;;4.00;3.70;;;21.50;24.70;;;;;;5072105;28;20921;-66
2021/04/04 11:20:08;;;;;;;4.13;3.83;;;21.90;25.80;;;;;;5066090;28;20945;-66
2021/04/04 11:22:34;;;;;;;4.50;4.20;;;21.80;24.30;;;;;;5066676;28;20442;-66
2021/04/04 11:25:03;;;;;;;4.90;4.50;;;21.30;23.70;;;;;;5065323;28;20921;-66
2021/04/04 11:27:41;;;;;;;4.33;4.03;;;21.50;25.10;;;;;;5066672;28;20181;-66
2021/04/04 11:30:15;;;;;;;3.90;3.70;;;21.10;25.40;;;;;;5049552;28;20466;-67
2021/04/04 11:32:45;;;;;;;4.20;3.80;;;21.40;25.60;;;;;;5070647;28;20407;-66
2021/04/04 11:35:13;;;;;;;4.77;4.40;;;22.10;26.50;;;;;;5070361;28;20460;-66
2021/04/04 11:37:41;;;;;;;5.10;4.70;;;22.10;24.70;;;;;;5057080;28;20504;-67
2021/04/04 11:40:20;;;;;;;4.17;3.90;;;21.90;24.80;;;;;;5061947;28;20459;-67
2021/04/04 11:43:10;;;;;;;4.53;3.87;;;22.10;24.90;;;;;;5059293;28;20407;-66
2021/04/04 11:45:38;;;;;;;4.63;4.33;;;22.20;24.50;;;;;;5053437;28;20435;-66
2021/04/04 11:48:34;;;;;;;5.23;4.83;;;22.20;24.80;;;;;;5066902;28;20427;-66
2021/04/04 11:51:11;;;;;;;5.60;5.10;;;21.80;24.70;;;;;;5067227;28;20415;-66
2021/04/04 11:53:46;;;;;;;5.70;5.30;;;20.80;25.30;;;;;;5066778;28;22601;-67
2021/04/04 11:56:41;;;;;;;4.90;4.50;;;20.00;27.20;;;;;;5066838;28;20996;-67
2021/04/04 11:59:06;;;;;;;5.17;4.77;;;20.10;26.10;;;;;;5067236;28;20412;-65
2021/04/04 12:01:32;;;;;;;5.13;4.83;;;20.60;26.50;;;;;;5047192;28;20447;-66
2021/04/04 12:04:29;;;;;;;4.87;4.57;;;20.10;25.00;;;;;;5067025;28;20230;-66
2021/04/04 12:07:09;;;;;;;4.87;4.47;;;19.80;27.00;;;;;;5066446;28;20832;-66
2021/04/04 12:09:36;;;;;;;5.10;4.80;;;20.60;26.20;;;;;;5069374;28;20461;-66
2021/04/04 12:12:03;;;;;;;5.63;5.13;;;21.20;25.90;;;;;;5066356;28;20455;-66
2021/04/04 12:14:29;;;;;;;5.43;5.03;;;21.40;25.00;;;;;;5065908;28;20419;-65
2021/04/04 12:16:55;;;;;;;5.47;5.07;;;21.20;24.10;;;;;;5047218;28;20814;-67
2021/04/04 12:19:28;;;;;;;4.90;4.50;;;21.10;24.00;;;;;;5067009;28;20196;-66
2021/04/04 12:21:55;;;;;;;5.13;4.63;;;20.90;24.30;;;;;;5066347;28;20928;-67
2021/04/04 12:24:20;;;;;;;5.20;4.90;;;20.80;26.30;;;;;;5066783;28;20430;-67
2021/04/04 12:26:52;;;;;;;5.43;5.00;;;20.20;27.10;;;;;;5062447;28;20791;-67
2021/04/04 12:29:18;;;;;;;5.00;4.60;;;20.80;27.00;;;;;;5066875;28;20208;-67
2021/04/04 12:31:44;;;;;;;5.00;4.50;;;21.20;26.20;;;;;;5066686;28;20415;-66
2021/04/04 12:34:10;;;;;;;5.07;4.77;;;21.40;26.40;;;;;;5077144;28;20185;-66
2021/04/04 12:36:43;;;;;;;6.63;4.63;;;22.10;25.90;;;;;;5068251;28;20303;-67
2021/04/04 12:39:09;;;;;;;6.90;5.50;;;22.30;25.30;;;;;;5070582;28;20234;-66
2021/04/04 12:41:35;;;;;;;5.80;5.40;;;21.80;25.00;;;;;;5069858;28;20430;-66
2021/04/04 12:44:01;;;;;;;5.97;5.47;;;21.50;25.20;;;;;;5057129;28;20686;-66
2021/04/04 12:46:30;;;;;;;5.50;5.00;;;21.40;26.90;;;;;;5064271;28;20699;-66
2021/04/04 12:48:56;;;;;;;5.10;4.60;;;21.40;25.70;;;;;;5068469;28;20181;-66
2021/04/04 12:51:21;;;;;;;5.20;4.80;;;21.00;26.40;;;;;;5069595;28;20496;-66
2021/04/04 12:53:48;;;;;;;5.67;5.10;;;21.10;25.50;;;;;;5068760;28;20226;-66
2021/04/04 12:56:14;;;;;;;5.43;5.03;;;21.50;25.00;;;;;;5068446;28;20699;-66
2021/04/04 12:58:41;;;;;;;5.60;5.20;;;21.20;25.90;;;;;;5051081;28;20435;-66
2021/04/04 13:01:13;;;;;;;4.70;4.40;;;20.80;26.70;;;;;;5061406;28;20604;-66
2021/04/04 13:03:39;;;;;;;6.10;5.63;;;21.10;26.80;;;;;;5071169;28;20465;-67
2021/04/04 13:06:05;;;;;;;5.53;5.23;;;21.00;26.20;;;;;;5070473;28;20518;-66
2021/04/04 13:08:33;;;;;;;5.23;4.83;;;20.50;27.00;;;;;;5071470;28;20794;-66
2021/04/04 13:11:04;;;;;;;5.20;4.90;;;21.00;26.50;;;;;;5066740;28;20510;-66
2021/04/04 13:13:35;;;;;;;5.67;5.20;;;21.10;26.50;;;;;;5060390;28;20968;-66